Clear Lake, IA (50428)

6:35 AM CDT on September 02, 2014 (GMT -0500)
South of Oak Hills Golf C. | Change Station
CLOSE
Current Station
Personal Weather Station
Location: Clear Lake, IA
Elevation: 1263 ft
Nearby Weather Stations

Elev 1263 ft 43.11 °N, 93.38 °W | Updated 4 seconds ago

Light Rain
Light Rain Mist
60.0 °F
Feels Like 60.0 °F
N
2.0
Wind Variable Wind from NE
Gusts 4.0 mph

Today
High -- | Low -- °F
--% Chance of Precip.
Yesterday
High -- | Low -- °F
Precip. -- in
6:38 AM 7:46 PM
Waxing Crescent, 50% visible
Pressure 29.93 in
Visibility 5.0 miles
Clouds Mostly Cloudy 6500 ft
Overcast 8000 ft
Dew Point 58 °F
Humidity 94%
Rainfall 0.14 in
Snow Depth Not available.
UV 0 out of 12
Pollen 9.10 out of 12
Air Quality Not available.
Flu Activity Not available.
METAR KMCW 021053Z AUTO 30009KT 5SM -RA BR BKN065 OVC080 15/14 A2995 RMK AO2 PK WND 26026/1005 LTG DSNT NE AND E TSB03E18 SLP133 P0009 T01500144

More Conditions Fewer Conditions

Pressure 29.93 in
Visibility 5.0 miles
Clouds Mostly Cloudy 6500 ft
Overcast 8000 ft
Dew Point 58 °F
Humidity 94%
Rainfall 0.14 in
Snow Depth Not available.
UV 0 out of 12
Pollen 9.10 out of 12
Air Quality Not available.
Flu Activity Not available.
METAR KMCW 021053Z AUTO 30009KT 5SM -RA BR BKN065 OVC080 15/14 A2995 RMK AO2 PK WND 26026/1005 LTG DSNT NE AND E TSB03E18 SLP133 P0009 T01500144

More Conditions Fewer Conditions

10-Day Weather Forecast

Almanac

Astronomy

Sep. 02, 2014 Rise Set
Actual Time 6:38 AM CDT 7:46 PM CDT
Civil Twilight 6:09 AM CDT 8:15 PM CDT
Nautical Twilight 5:34 AM CDT 8:50 PM CDT
Astronomical Twilight 4:57 AM CDT 9:27 PM CDT
Moon 2:35 PM CDT No Moon Set
Length of Visible Light 14h 06m
Length of Day
13h 07m
Tomorrow will be 2m 49s shorter.
Waxing Crescent, 50% of the Moon is Illuminated
Today
Waxing Crescent
Sep 8
Full
Sep 15
Last Quarter
Sep 24
New
Oct 1
First Quarter

Today's Extremes

State Highs State Lows

Community

WunderPhotos

Upload Photos

1,749,621 photos uploaded!

WunderBlogs® & News

By Dr. Jeff Masters
Director of Meteorology, Weather Underground
By Kari Strenfel
Meteorologist, Weather Underground
By Christopher C. Burt
Weather Historian, Weather Underground
September 2, 2014
September 2, 2014
September 2, 2014

Nearby

Snow Depth

Station Depth Elevation
No new snow has been reported.

Earthquake Activity

City Distance Mag. Time & Date
No recent earthquake activity has been reported nearby.
Minimum magnitude displayed is 2.5.

Coastal Water Temperatures

Place Temperature
No Stations Reporting

Nearby Weather Stations